createdAt,value
2022-11-05T00:01:19.138Z,100.00
2022-11-05T00:04:04.912Z,100.00
2022-11-05T00:06:51.832Z,100.00
2022-11-05T00:09:33.148Z,100.00
2022-11-05T00:12:22.455Z,100.00
2022-11-05T00:15:08.151Z,100.00
2022-11-05T00:17:36.317Z,100.00
2022-11-05T00:20:05.467Z,100.00
2022-11-05T00:22:52.164Z,100.00
2022-11-05T00:25:22.056Z,100.00
2022-11-05T00:27:51.248Z,100.00
2022-11-05T00:30:20.771Z,100.00
2022-11-05T00:32:49.820Z,100.00
2022-11-05T00:35:18.858Z,100.00
2022-11-05T00:37:50.359Z,100.00
2022-11-05T00:40:18.905Z,100.00
2022-11-05T00:43:04.549Z,100.00
2022-11-05T00:45:33.008Z,100.00
2022-11-05T00:48:18.268Z,100.00
2022-11-05T00:50:46.300Z,100.00
2022-11-05T00:53:15.688Z,100.00
2022-11-05T00:55:45.965Z,100.00
2022-11-05T00:58:15.529Z,100.00
2022-11-05T01:00:45.347Z,100.00
2022-11-05T01:03:15.203Z,100.00
2022-11-05T01:05:45.281Z,100.00
2022-11-05T01:08:15.660Z,100.00
2022-11-05T01:10:44.714Z,100.00
2022-11-05T01:13:14.331Z,100.00
2022-11-05T01:15:43.336Z,100.00
2022-11-05T01:18:11.329Z,100.00
2022-11-05T01:20:39.394Z,100.00
2022-11-05T01:23:12.996Z,100.00
2022-11-05T01:25:43.139Z,100.00
2022-11-05T01:28:11.495Z,100.00
2022-11-05T01:30:39.766Z,100.00
2022-11-05T01:33:08.198Z,100.00
2022-11-05T01:35:36.383Z,100.00
2022-11-05T01:38:04.424Z,100.00
2022-11-05T01:40:32.496Z,100.00
2022-11-05T01:43:01.922Z,100.00
2022-11-05T01:45:30.085Z,100.00
2022-11-05T01:48:04.716Z,100.00
2022-11-05T01:50:37.482Z,100.00
2022-11-05T01:53:11.387Z,100.00
2022-11-05T01:55:44.514Z,100.00
2022-11-05T01:58:20.639Z,100.00
2022-11-05T02:00:48.830Z,100.00
2022-11-05T02:03:17.885Z,100.00
2022-11-05T02:05:46.355Z,100.00
2022-11-05T02:08:20.675Z,100.00
2022-11-05T02:10:48.920Z,100.00
2022-11-05T02:13:18.304Z,100.00
2022-11-05T02:15:55.075Z,100.00
2022-11-05T02:18:32.730Z,100.00
2022-11-05T02:21:17.191Z,100.00
2022-11-05T02:24:26.717Z,100.00
2022-11-05T02:27:08.476Z,100.00
2022-11-05T02:30:08.932Z,100.00
2022-11-05T02:33:10.225Z,100.00
2022-11-05T02:36:01.924Z,100.00
2022-11-05T02:38:38.929Z,100.00
2022-11-05T02:41:11.169Z,100.00
2022-11-05T02:43:47.228Z,100.00
2022-11-05T02:46:26.743Z,100.00
2022-11-05T02:49:00.036Z,100.00
2022-11-05T02:51:34.500Z,100.00
2022-11-05T02:54:07.456Z,100.00
2022-11-05T02:56:37.923Z,100.00
2022-11-05T02:59:06.058Z,100.00
2022-11-05T03:01:35.720Z,100.00
2022-11-05T03:04:11.503Z,100.00
2022-11-05T03:07:06.057Z,100.00
2022-11-05T03:10:04.875Z,100.00
2022-11-05T03:12:40.097Z,100.00
2022-11-05T03:15:16.541Z,100.00
2022-11-05T03:17:51.466Z,100.00
2022-11-05T03:20:23.730Z,100.00
2022-11-05T03:22:55.896Z,100.00
2022-11-05T03:25:25.826Z,100.00
2022-11-05T03:27:58.308Z,100.00
2022-11-05T03:30:26.729Z,100.00
2022-11-05T03:32:59.350Z,100.00
2022-11-05T03:35:31.972Z,100.00
2022-11-05T03:38:03.321Z,100.00
2022-11-05T03:40:34.710Z,100.00
2022-11-05T03:43:05.046Z,100.00
2022-11-05T03:45:36.190Z,100.00
2022-11-05T03:48:05.558Z,100.00
2022-11-05T03:50:41.460Z,100.00
2022-11-05T03:53:14.946Z,100.00
2022-11-05T03:55:49.002Z,100.00
2022-11-05T03:58:17.151Z,100.00
2022-11-05T04:00:45.201Z,100.00
2022-11-05T04:03:13.372Z,100.00
2022-11-05T04:05:43.028Z,100.00
2022-11-05T04:08:28.757Z,100.00
2022-11-05T04:11:14.045Z,100.00
2022-11-05T04:13:42.080Z,100.00
2022-11-05T04:16:27.568Z,100.00
2022-11-05T04:18:55.598Z,100.00
2022-11-05T04:21:42.689Z,100.00
2022-11-05T04:24:10.812Z,100.00
2022-11-05T04:26:40.295Z,100.00
2022-11-05T04:29:25.990Z,100.00
2022-11-05T04:31:54.016Z,100.00
2022-11-05T04:34:22.787Z,100.00
2022-11-05T04:36:52.410Z,100.00
2022-11-05T04:39:21.172Z,100.00
2022-11-05T04:41:49.410Z,100.00
2022-11-05T04:44:17.869Z,100.00
2022-11-05T04:46:45.931Z,100.00
2022-11-05T04:49:13.930Z,100.00
2022-11-05T04:51:41.912Z,100.00
2022-11-05T04:54:11.406Z,100.00
2022-11-05T04:56:39.346Z,100.00
2022-11-05T04:59:07.337Z,100.00
2022-11-05T05:01:35.381Z,100.00
2022-11-05T05:04:03.535Z,100.00
2022-11-05T05:06:31.605Z,100.00
2022-11-05T05:08:59.585Z,100.00
2022-11-05T05:11:28.993Z,100.00
2022-11-05T05:13:56.986Z,100.00
2022-11-05T05:16:26.941Z,100.00
2022-11-05T05:18:55.797Z,100.00
2022-11-05T05:21:38.885Z,100.00
2022-11-05T05:24:09.327Z,100.00
2022-11-05T05:26:39.186Z,100.00
2022-11-05T05:29:07.289Z,100.00
2022-11-05T05:31:35.313Z,100.00
2022-11-05T05:34:03.628Z,100.00
2022-11-05T05:36:31.597Z,100.00
2022-11-05T05:38:59.700Z,100.00
2022-11-05T05:41:27.803Z,100.00
2022-11-05T05:43:57.155Z,100.00
2022-11-05T05:46:25.265Z,100.00
2022-11-05T05:48:53.608Z,100.00
2022-11-05T05:51:21.937Z,100.00
2022-11-05T05:53:50.079Z,100.00
2022-11-05T05:56:20.739Z,100.00
2022-11-05T05:58:49.016Z,100.00
2022-11-05T06:01:20.226Z,100.00
2022-11-05T06:03:49.737Z,100.00
2022-11-05T06:06:21.050Z,100.00
2022-11-05T06:08:49.796Z,100.00
2022-11-05T06:11:17.851Z,100.00
2022-11-05T06:13:46.067Z,100.00
2022-11-05T06:16:14.091Z,100.00
2022-11-05T06:18:43.639Z,100.00
2022-11-05T06:21:12.957Z,100.00
2022-11-05T06:23:42.131Z,100.00
2022-11-05T06:26:11.844Z,100.00
2022-11-05T06:28:39.844Z,100.00
2022-11-05T06:31:08.048Z,100.00
2022-11-05T06:33:36.412Z,100.00
2022-11-05T06:36:06.965Z,100.00
2022-11-05T06:38:36.717Z,100.00
2022-11-05T06:41:10.093Z,100.00
2022-11-05T06:43:39.176Z,100.00
2022-11-05T06:46:07.839Z,100.00
2022-11-05T06:48:36.171Z,100.00
2022-11-05T06:51:06.330Z,100.00
2022-11-05T06:53:34.408Z,100.00
2022-11-05T06:56:06.589Z,100.00
2022-11-05T06:58:35.171Z,100.00
2022-11-05T07:01:03.498Z,100.00
2022-11-05T07:03:32.322Z,100.00
2022-11-05T07:06:01.279Z,100.00
2022-11-05T07:08:31.968Z,100.00
2022-11-05T07:11:00.616Z,100.00
2022-11-05T07:13:28.705Z,100.00
2022-11-05T07:15:56.894Z,100.00
2022-11-05T07:18:25.242Z,100.00
2022-11-05T07:20:53.215Z,100.00
2022-11-05T07:23:21.196Z,100.00
2022-11-05T07:25:50.736Z,100.00
2022-11-05T07:28:18.876Z,100.00
2022-11-05T07:30:48.264Z,100.00
2022-11-05T07:33:16.344Z,100.00
2022-11-05T07:35:44.392Z,100.00
2022-11-05T07:38:12.371Z,100.00
2022-11-05T07:40:40.338Z,100.00
2022-11-05T07:43:10.458Z,100.00
2022-11-05T07:45:38.683Z,100.00
2022-11-05T07:48:07.330Z,100.00
2022-11-05T07:50:36.742Z,100.00
2022-11-05T07:53:06.146Z,100.00
2022-11-05T07:55:34.889Z,100.00
2022-11-05T07:58:02.913Z,100.00
2022-11-05T08:00:32.433Z,100.00
2022-11-05T08:03:09.569Z,100.00
2022-11-05T08:05:44.568Z,100.00
2022-11-05T08:08:13.918Z,100.00
2022-11-05T08:10:42.360Z,100.00
2022-11-05T08:13:11.329Z,100.00
2022-11-05T08:15:42.315Z,100.00
2022-11-05T08:18:13.363Z,100.00
2022-11-05T08:20:42.182Z,100.00
2022-11-05T08:23:11.059Z,100.00
2022-11-05T08:25:39.799Z,100.00
2022-11-05T08:28:09.409Z,100.00
2022-11-05T08:30:37.524Z,100.00
2022-11-05T08:33:08.512Z,100.00
2022-11-05T08:35:37.864Z,100.00
2022-11-05T08:38:07.971Z,97.89
2022-11-05T08:40:37.874Z,95.51
2022-11-05T08:43:07.891Z,95.09
2022-11-05T08:45:38.205Z,93.97
2022-11-05T08:48:10.417Z,93.57
2022-11-05T08:50:38.720Z,90.61
2022-11-05T08:53:06.998Z,86.48
2022-11-05T08:55:35.213Z,84.69
2022-11-05T08:58:04.725Z,82.73
2022-11-05T09:00:34.855Z,81.26
2022-11-05T09:03:04.495Z,77.49
2022-11-05T09:05:38.289Z,69.42
2022-11-05T09:08:08.167Z,67.21
2022-11-05T09:10:37.496Z,64.88
2022-11-05T09:13:14.707Z,68.61
2022-11-05T09:15:46.264Z,70.65
2022-11-05T09:18:15.638Z,72.04
2022-11-05T09:20:45.791Z,75.26
2022-11-05T09:23:17.229Z,74.00
2022-11-05T09:25:45.555Z,74.88
2022-11-05T09:28:17.015Z,73.99
2022-11-05T09:30:47.091Z,71.08
2022-11-05T09:33:15.944Z,70.39
2022-11-05T09:35:45.674Z,70.12
2022-11-05T09:38:13.920Z,69.68
2022-11-05T09:40:44.118Z,63.51
2022-11-05T09:43:18.261Z,63.12
2022-11-05T09:45:47.540Z,61.33
2022-11-05T09:48:17.566Z,54.50
2022-11-05T09:50:47.609Z,56.39
2022-11-05T09:53:19.162Z,55.35
2022-11-05T09:55:49.565Z,63.13
2022-11-05T09:58:23.265Z,66.29
2022-11-05T10:00:55.583Z,69.66
2022-11-05T10:03:25.089Z,71.97
2022-11-05T10:05:56.101Z,72.74
2022-11-05T10:08:26.705Z,75.86
2022-11-05T10:10:56.817Z,67.62
2022-11-05T10:13:31.224Z,64.54
2022-11-05T10:16:04.104Z,63.42
2022-11-05T10:18:35.258Z,62.89
2022-11-05T10:21:06.817Z,64.55
2022-11-05T10:23:42.491Z,65.84
2022-11-05T10:26:15.134Z,67.85
2022-11-05T10:28:44.517Z,71.31
2022-11-05T10:31:14.658Z,72.92
2022-11-05T10:33:45.731Z,76.22
2022-11-05T10:36:18.567Z,76.38
2022-11-05T10:38:46.608Z,75.26
2022-11-05T10:41:32.191Z,74.88
2022-11-05T10:44:18.542Z,77.65
2022-11-05T10:46:51.150Z,80.39
2022-11-05T10:49:34.879Z,79.55
2022-11-05T10:52:16.791Z,78.04
2022-11-05T10:54:45.185Z,76.34
2022-11-05T10:57:30.063Z,75.41
2022-11-05T11:00:22.751Z,78.03
2022-11-05T11:02:53.521Z,77.88
2022-11-05T11:05:28.401Z,81.47
2022-11-05T11:08:24.001Z,85.97
2022-11-05T11:10:54.180Z,84.32
2022-11-05T11:13:23.629Z,84.68
2022-11-05T11:15:51.870Z,85.85
2022-11-05T11:18:34.677Z,85.20
2022-11-05T11:21:13.520Z,80.87
2022-11-05T11:23:55.765Z,78.47
2022-11-05T11:26:25.705Z,76.60
2022-11-05T11:28:58.992Z,75.75
2022-11-05T11:31:28.910Z,75.65
2022-11-05T11:34:01.819Z,79.10
2022-11-05T11:36:36.216Z,79.03
2022-11-05T11:39:07.636Z,81.35
2022-11-05T11:41:39.185Z,82.04
2022-11-05T11:44:13.141Z,84.29
2022-11-05T11:46:42.969Z,86.04
2022-11-05T11:49:33.329Z,89.02
2022-11-05T11:52:05.384Z,90.65
2022-11-05T11:54:36.360Z,88.43
2022-11-05T11:57:05.440Z,87.41
2022-11-05T12:00:06.749Z,88.41
2022-11-05T12:02:41.453Z,89.10
2022-11-05T12:05:18.399Z,87.20
2022-11-05T12:07:53.192Z,87.54
2022-11-05T12:10:53.215Z,83.80
2022-11-05T12:13:39.000Z,78.78
2022-11-05T12:16:14.664Z,73.83
2022-11-05T12:18:48.430Z,74.08
2022-11-05T12:21:34.828Z,75.73
2022-11-05T12:24:28.112Z,80.62
2022-11-05T12:27:05.720Z,81.35
2022-11-05T12:29:41.432Z,85.79
2022-11-05T12:32:28.419Z,83.91
2022-11-05T12:35:01.265Z,85.93
2022-11-05T12:37:34.465Z,85.22
2022-11-05T12:40:13.878Z,83.66
2022-11-05T12:42:57.660Z,78.94
2022-11-05T12:45:35.118Z,71.67
2022-11-05T12:48:15.811Z,68.19
2022-11-05T12:50:46.365Z,65.20
2022-11-05T12:53:35.868Z,63.55
2022-11-05T12:56:08.176Z,63.10
2022-11-05T12:58:40.246Z,64.92
2022-11-05T13:01:11.191Z,69.15
2022-11-05T13:03:43.742Z,70.58
2022-11-05T13:06:14.761Z,72.74
2022-11-05T13:08:46.536Z,77.60
2022-11-05T13:11:21.239Z,77.87
2022-11-05T13:14:00.111Z,78.90
2022-11-05T13:16:31.640Z,80.49
2022-11-05T13:19:05.774Z,81.82
2022-11-05T13:21:36.788Z,82.33
2022-11-05T13:24:07.643Z,79.67
2022-11-05T13:26:41.429Z,80.99
2022-11-05T13:29:14.355Z,80.80
2022-11-05T13:31:44.878Z,77.89
2022-11-05T13:34:14.244Z,75.08
2022-11-05T13:37:08.602Z,75.11
2022-11-05T13:39:39.285Z,77.51
2022-11-05T13:42:43.373Z,75.90
2022-11-05T13:45:35.875Z,76.89
2022-11-05T13:48:26.977Z,76.78
2022-11-05T13:51:15.156Z,77.97
2022-11-05T13:54:08.183Z,78.85
2022-11-05T13:56:47.412Z,80.38
2022-11-05T13:59:35.288Z,81.46
2022-11-05T14:02:06.238Z,82.51
2022-11-05T14:04:37.565Z,83.04
2022-11-05T14:07:09.389Z,76.34
2022-11-05T14:09:38.313Z,72.77
2022-11-05T14:12:09.017Z,71.40
2022-11-05T14:14:44.412Z,74.98
2022-11-05T14:17:22.364Z,77.60
2022-11-05T14:19:53.307Z,80.12
2022-11-05T14:22:39.318Z,80.70
2022-11-05T14:25:44.693Z,82.27
2022-11-05T14:28:44.631Z,83.73
2022-11-05T14:32:02.446Z,86.17
2022-11-05T14:34:41.633Z,87.21
2022-11-05T14:37:30.514Z,89.99
2022-11-05T14:40:19.825Z,92.01
2022-11-05T14:42:52.015Z,93.82
2022-11-05T14:45:28.495Z,94.72
2022-11-05T14:47:58.653Z,95.69
2022-11-05T14:50:33.440Z,96.57
2022-11-05T14:53:24.529Z,97.33
2022-11-05T14:56:00.898Z,97.91
2022-11-05T14:58:35.560Z,98.71
2022-11-05T15:01:06.662Z,99.18
2022-11-05T15:04:03.694Z,100.00
2022-11-05T15:06:35.678Z,100.00
2022-11-05T15:09:18.576Z,100.00
2022-11-05T15:11:53.884Z,100.00
2022-11-05T15:14:30.645Z,100.00
2022-11-05T15:17:03.618Z,100.00
2022-11-05T15:19:34.884Z,100.00
2022-11-05T15:22:17.260Z,100.00
2022-11-05T15:24:49.787Z,100.00
2022-11-05T15:27:23.966Z,100.00
2022-11-05T15:29:53.921Z,99.77
2022-11-05T15:32:26.327Z,100.00
2022-11-05T15:34:57.066Z,100.00
2022-11-05T15:37:28.735Z,100.00
2022-11-05T15:40:01.835Z,100.00
2022-11-05T15:42:31.043Z,100.00
2022-11-05T15:45:01.685Z,100.00
2022-11-05T15:47:30.981Z,100.00
2022-11-05T15:50:01.531Z,100.00
2022-11-05T15:52:36.619Z,100.00
2022-11-05T15:55:20.363Z,100.00
2022-11-05T15:57:51.340Z,100.00
2022-11-05T16:00:21.411Z,100.00
2022-11-05T16:02:54.992Z,100.00
2022-11-05T16:05:27.067Z,100.00
2022-11-05T16:08:02.088Z,100.00
2022-11-05T16:10:32.417Z,100.00
2022-11-05T16:13:24.784Z,100.00
2022-11-05T16:15:57.618Z,100.00
2022-11-05T16:18:27.081Z,100.00
2022-11-05T16:21:06.314Z,100.00
2022-11-05T16:23:47.401Z,100.00
2022-11-05T16:29:32.908Z,100.00
2022-11-05T16:32:03.716Z,100.00
2022-11-05T16:34:34.798Z,100.00
2022-11-05T16:37:02.905Z,100.00
2022-11-05T16:39:32.890Z,100.00
2022-11-05T16:42:01.186Z,100.00
2022-11-05T16:44:29.269Z,100.00
2022-11-05T16:46:57.283Z,100.00
2022-11-05T16:49:25.339Z,100.00
2022-11-05T16:51:53.743Z,100.00
2022-11-05T16:54:21.783Z,100.00
2022-11-05T16:56:51.280Z,100.00
2022-11-05T16:59:19.314Z,100.00
2022-11-05T17:01:50.422Z,100.00
2022-11-05T17:04:23.292Z,100.00
2022-11-05T17:06:51.876Z,100.00
2022-11-05T17:09:19.972Z,100.00
2022-11-05T17:11:48.912Z,100.00
2022-11-05T17:14:19.029Z,100.00
2022-11-05T17:16:49.243Z,100.00
2022-11-05T17:19:17.316Z,100.00
2022-11-05T17:21:57.538Z,100.00
2022-11-05T17:24:47.968Z,100.00
2022-11-05T17:27:28.113Z,100.00
2022-11-05T17:30:30.056Z,100.00
2022-11-05T17:33:21.817Z,100.00
2022-11-05T17:36:21.615Z,100.00
2022-11-05T17:39:12.679Z,100.00
2022-11-05T17:42:12.242Z,100.00
2022-11-05T17:45:09.975Z,100.00
2022-11-05T17:48:12.674Z,100.00
2022-11-05T17:51:09.411Z,100.00
2022-11-05T17:54:20.672Z,100.00
2022-11-05T17:57:16.877Z,100.00
2022-11-05T18:00:10.106Z,100.00
2022-11-05T18:03:04.220Z,100.00
2022-11-05T18:06:00.787Z,100.00
2022-11-05T18:08:47.399Z,100.00
2022-11-05T18:11:15.602Z,100.00
2022-11-05T18:13:51.523Z,100.00
2022-11-05T18:16:38.204Z,100.00
2022-11-05T18:19:07.614Z,100.00
2022-11-05T18:21:35.560Z,100.00
2022-11-05T18:24:04.222Z,100.00
2022-11-05T18:26:32.368Z,100.00
2022-11-05T18:29:01.395Z,100.00
2022-11-05T18:31:29.747Z,100.00
2022-11-05T18:33:59.667Z,100.00
2022-11-05T18:36:30.779Z,100.00
2022-11-05T18:39:00.132Z,100.00
2022-11-05T18:41:29.082Z,100.00
2022-11-05T18:43:59.636Z,100.00
2022-11-05T18:46:55.833Z,100.00
2022-11-05T18:49:16.677Z,100.00
2022-11-05T18:51:46.117Z,100.00
2022-11-05T18:54:14.553Z,100.00
2022-11-05T18:56:45.627Z,100.00
2022-11-05T19:02:02.857Z,100.00
2022-11-05T19:04:30.933Z,100.00
2022-11-05T19:07:04.828Z,100.00
2022-11-05T19:09:33.484Z,100.00
2022-11-05T19:12:01.703Z,100.00
2022-11-05T19:14:30.107Z,100.00
2022-11-05T19:16:58.226Z,100.00
2022-11-05T19:19:26.506Z,100.00
2022-11-05T19:21:54.557Z,100.00
2022-11-05T19:24:23.946Z,100.00
2022-11-05T19:26:52.125Z,100.00
2022-11-05T19:29:20.166Z,100.00
2022-11-05T19:31:48.537Z,100.00
2022-11-05T19:34:16.569Z,100.00
2022-11-05T19:36:44.797Z,100.00
2022-11-05T19:39:13.864Z,100.00
2022-11-05T19:41:43.346Z,100.00
2022-11-05T19:44:11.729Z,100.00
2022-11-05T19:46:39.734Z,100.00
2022-11-05T19:49:07.673Z,100.00
2022-11-05T19:51:35.658Z,100.00
2022-11-05T19:54:04.841Z,100.00
2022-11-05T19:56:34.389Z,100.00
2022-11-05T19:59:04.462Z,100.00
2022-11-05T20:01:33.677Z,100.00
2022-11-05T20:04:03.554Z,100.00
2022-11-05T20:06:33.365Z,100.00
2022-11-05T20:11:53.245Z,100.00
2022-11-05T20:14:23.176Z,100.00
2022-11-05T20:16:51.289Z,100.00
2022-11-05T20:19:20.861Z,100.00
2022-11-05T20:21:49.468Z,100.00
2022-11-05T20:24:24.240Z,100.00
2022-11-05T20:26:53.466Z,100.00
2022-11-05T20:29:24.077Z,100.00
2022-11-05T20:31:52.326Z,100.00
2022-11-05T20:34:20.399Z,100.00
2022-11-05T20:36:48.362Z,100.00
2022-11-05T20:39:16.945Z,100.00
2022-11-05T20:41:44.965Z,100.00
2022-11-05T20:44:13.582Z,100.00
2022-11-05T20:46:43.088Z,100.00
2022-11-05T20:49:11.154Z,100.00
2022-11-05T20:51:39.199Z,100.00
2022-11-05T20:54:07.286Z,100.00
2022-11-05T20:56:35.906Z,100.00
2022-11-05T20:59:05.823Z,100.00
2022-11-05T21:01:35.313Z,100.00
2022-11-05T21:04:05.613Z,100.00
2022-11-05T21:06:34.939Z,100.00
2022-11-05T21:09:04.145Z,100.00
2022-11-05T21:11:52.392Z,100.00
2022-11-05T21:14:20.596Z,100.00
2022-11-05T21:16:48.639Z,100.00
2022-11-05T21:19:18.170Z,100.00
2022-11-05T21:21:46.153Z,100.00
2022-11-05T21:24:14.211Z,100.00
2022-11-05T21:26:42.223Z,100.00
2022-11-05T21:29:10.760Z,100.00
2022-11-05T21:31:38.839Z,100.00
2022-11-05T21:34:06.812Z,100.00
2022-11-05T21:36:36.351Z,100.00
2022-11-05T21:39:10.461Z,100.00
2022-11-05T21:41:42.867Z,100.00
2022-11-05T21:44:11.037Z,100.00
2022-11-05T21:46:39.438Z,100.00
2022-11-05T21:49:07.565Z,100.00
2022-11-05T21:51:54.403Z,100.00
2022-11-05T21:54:39.703Z,100.00
2022-11-05T21:57:29.028Z,100.00
2022-11-05T22:00:00.956Z,100.00
2022-11-05T22:02:30.138Z,100.00
2022-11-05T22:05:00.797Z,100.00
2022-11-05T22:07:34.375Z,100.00
2022-11-05T22:10:03.068Z,100.00
2022-11-05T22:12:33.243Z,100.00
2022-11-05T22:15:01.682Z,100.00
2022-11-05T22:17:29.745Z,100.00
2022-11-05T22:19:58.607Z,100.00
2022-11-05T22:22:26.620Z,100.00
2022-11-05T22:24:56.026Z,100.00
2022-11-05T22:27:24.137Z,100.00
2022-11-05T22:29:55.468Z,100.00
2022-11-05T22:32:23.775Z,100.00
2022-11-05T22:34:52.139Z,100.00
2022-11-05T22:37:20.127Z,100.00
2022-11-05T22:39:48.762Z,100.00
2022-11-05T22:42:18.350Z,100.00
2022-11-05T22:44:46.516Z,100.00
2022-11-05T22:47:15.059Z,100.00
2022-11-05T22:49:43.088Z,100.00
2022-11-05T22:52:11.348Z,100.00
2022-11-05T22:54:40.437Z,100.00
2022-11-05T22:57:08.709Z,100.00
2022-11-05T22:59:38.350Z,100.00
2022-11-05T23:02:09.820Z,100.00
2022-11-05T23:04:40.277Z,100.00
2022-11-05T23:07:37.685Z,100.00
2022-11-05T23:10:24.500Z,100.00
2022-11-05T23:12:53.355Z,100.00
2022-11-05T23:15:41.518Z,100.00
2022-11-05T23:18:27.912Z,100.00
2022-11-05T23:21:13.097Z,100.00
2022-11-05T23:23:58.927Z,100.00
2022-11-05T23:26:44.247Z,100.00
2022-11-05T23:29:12.524Z,100.00
2022-11-05T23:31:59.327Z,100.00
2022-11-05T23:34:30.125Z,100.00
2022-11-05T23:37:24.445Z,100.00
2022-11-05T23:39:52.630Z,100.00
2022-11-05T23:42:38.397Z,100.00
2022-11-05T23:45:25.278Z,100.00
2022-11-05T23:48:12.602Z,100.00
2022-11-05T23:50:41.162Z,100.00
2022-11-05T23:53:09.473Z,100.00
2022-11-05T23:55:37.747Z,100.00
2022-11-05T23:58:05.858Z,100.00
